createdAt,value
2018-12-11T00:03:22.312Z,100628.33
2018-12-11T00:06:50.150Z,100619.23
2018-12-11T00:10:17.999Z,100619.78
2018-12-11T00:13:45.851Z,100639.59
2018-12-11T00:17:13.703Z,100631.92
2018-12-11T00:20:41.561Z,100626.18
2018-12-11T00:24:09.520Z,100624.65
2018-12-11T00:27:37.352Z,100619.01
2018-12-11T00:31:05.200Z,100640.86
2018-12-11T00:34:33.052Z,100637.89
2018-12-11T00:38:00.898Z,100620.96
2018-12-11T00:41:28.732Z,100676.14
2018-12-11T00:44:56.603Z,100622.84
2018-12-11T00:48:24.545Z,100630.05
2018-12-11T00:51:52.406Z,100645.38
2018-12-11T00:55:20.284Z,100625.7
2018-12-11T00:58:49.158Z,100639.52
2018-12-11T01:02:17.015Z,100640.03
2018-12-11T01:05:45.881Z,100636.54
2018-12-11T01:09:13.754Z,100634.62
2018-12-11T01:12:41.627Z,100641.84
2018-12-11T01:16:09.487Z,100643.6
2018-12-11T01:19:37.381Z,100650.48
2018-12-11T01:23:05.228Z,100656.48
2018-12-11T01:26:33.087Z,100654.43
2018-12-11T01:30:00.960Z,100658.47
2018-12-11T01:33:28.833Z,100668.25
2018-12-11T01:36:56.689Z,100666.01
2018-12-11T01:40:24.564Z,100671.52
2018-12-11T01:43:52.445Z,100673.57
2018-12-11T01:47:21.308Z,100677.57
2018-12-11T01:50:49.170Z,100691.84
2018-12-11T01:54:17.053Z,100688.64
2018-12-11T01:57:44.934Z,100694.43
2018-12-11T02:01:12.791Z,100687.54
2018-12-11T02:04:40.665Z,100709.5
2018-12-11T02:08:08.538Z,100697
2018-12-11T02:11:36.668Z,100703.73
2018-12-11T02:15:04.465Z,100720.07
2018-12-11T02:18:32.337Z,100735.17
2018-12-11T02:22:00.208Z,100733.46
2018-12-11T02:25:28.070Z,100726.61
2018-12-11T02:28:55.949Z,100737.25
2018-12-11T02:32:23.812Z,100749.46
2018-12-11T02:35:51.670Z,100746.69
2018-12-11T02:39:19.551Z,100751.88
2018-12-11T02:42:47.425Z,100756.71
2018-12-11T02:46:15.297Z,100753.92
2018-12-11T02:49:43.162Z,100761.35
2018-12-11T02:53:11.035Z,100765.09
2018-12-11T02:56:38.902Z,100761.3
2018-12-11T03:00:06.767Z,100776.09
2018-12-11T03:03:34.693Z,100775.48
2018-12-11T03:07:02.572Z,100786.04
2018-12-11T03:10:30.428Z,100782.55
2018-12-11T03:13:58.304Z,100794.89
2018-12-11T03:17:27.169Z,100799.39
2018-12-11T03:20:55.025Z,100803.71
2018-12-11T03:24:26.036Z,100815.09
2018-12-11T03:27:54.459Z,100812.87
2018-12-11T03:31:22.315Z,100816.29
2018-12-11T03:34:50.206Z,100824.48
2018-12-11T03:38:18.080Z,100825.63
2018-12-11T03:41:46.945Z,100843.4
2018-12-11T03:45:14.811Z,100843.08
2018-12-11T03:48:42.997Z,100850.45
2018-12-11T03:52:10.867Z,100863.6
2018-12-11T03:55:41.698Z,100863.76
2018-12-11T03:59:09.575Z,100864.26
2018-12-11T04:02:37.446Z,100878.35
2018-12-11T04:06:05.300Z,100884.33
2018-12-11T04:09:33.205Z,100890.42
2018-12-11T04:13:01.083Z,100894.92
2018-12-11T04:16:28.935Z,100900.04
2018-12-11T04:19:56.836Z,100894.15
2018-12-11T04:23:24.714Z,100903.1
2018-12-11T04:26:52.594Z,100914.48
2018-12-11T04:30:20.444Z,100919.63
2018-12-11T04:33:48.317Z,100936.12
2018-12-11T04:37:16.201Z,100937.24
2018-12-11T04:40:44.060Z,100940.43
2018-12-11T04:44:11.937Z,100942.25
2018-12-11T04:47:39.821Z,100953.13
2018-12-11T04:51:07.674Z,100961
2018-12-11T04:54:35.555Z,100960.7
2018-12-11T04:58:03.453Z,100979.43
2018-12-11T05:01:31.346Z,100977.21
2018-12-11T05:04:59.217Z,100973.21
2018-12-11T05:08:27.090Z,100983.27
2018-12-11T05:11:54.968Z,100986.64
2018-12-11T05:15:22.827Z,100989.35
2018-12-11T05:18:50.699Z,101001.23
2018-12-11T05:22:18.578Z,100998.82
2018-12-11T05:25:46.435Z,100997.52
2018-12-11T05:29:14.310Z,101007.26
2018-12-11T05:32:42.184Z,101018.76
2018-12-11T05:36:10.039Z,101029.17
2018-12-11T05:39:37.913Z,101020.25
2018-12-11T05:43:05.786Z,101034.82
2018-12-11T05:46:33.645Z,101035.81
2018-12-11T05:50:01.520Z,101039.8
2018-12-11T05:53:29.401Z,101047.21
2018-12-11T05:56:57.277Z,101058.57
2018-12-11T06:00:25.153Z,101061.3
2018-12-11T06:03:53.025Z,101075.71
2018-12-11T06:07:20.899Z,101075.07
2018-12-11T06:10:48.758Z,101074.44
2018-12-11T06:14:16.651Z,101084.01
2018-12-11T06:17:44.514Z,101088.95
2018-12-11T06:21:12.390Z,101089.07
2018-12-11T06:24:40.256Z,101091.75
2018-12-11T06:28:08.131Z,101093.82
2018-12-11T06:31:36.004Z,101097.32
2018-12-11T06:35:03.865Z,101110.62
2018-12-11T06:38:32.725Z,101116.03
2018-12-11T06:42:00.602Z,101132.32
2018-12-11T06:45:28.454Z,101132.62
2018-12-11T06:48:56.325Z,101136.31
2018-12-11T06:52:24.196Z,101138.53
2018-12-11T06:55:52.055Z,101141.24
2018-12-11T06:59:20.925Z,101142.03
2018-12-11T07:02:48.800Z,101143.62
2018-12-11T07:06:16.670Z,101154.13
2018-12-11T07:09:44.529Z,101162.44
2018-12-11T07:13:13.394Z,101162.45
2018-12-11T07:16:41.269Z,101167.35
2018-12-11T07:20:09.129Z,101167.16
2018-12-11T07:23:37.001Z,101163.25
2018-12-11T07:27:04.877Z,101166.04
2018-12-11T07:30:32.755Z,101173.71
2018-12-11T07:34:00.617Z,101183.76
2018-12-11T07:37:28.497Z,101189.81
2018-12-11T07:40:56.391Z,101187.71
2018-12-11T07:44:24.255Z,101193.64
2018-12-11T07:47:52.124Z,101191.69
2018-12-11T07:51:20.002Z,101199.38
2018-12-11T07:54:47.861Z,101204.46
2018-12-11T07:58:15.730Z,101217.25
2018-12-11T08:01:43.610Z,101212.25
2018-12-11T08:05:11.464Z,101221.19
2018-12-11T08:08:39.348Z,101221.82
2018-12-11T08:12:09.203Z,101226.88
2018-12-11T08:15:37.197Z,101226.91
2018-12-11T08:19:05.059Z,101229.29
2018-12-11T08:22:33.936Z,101237.29
2018-12-11T08:26:01.812Z,101241.45
2018-12-11T08:29:29.672Z,101247.67
2018-12-11T08:32:57.548Z,101246.03
2018-12-11T08:36:25.424Z,101246.46
2018-12-11T08:39:53.282Z,101243.62
2018-12-11T08:43:21.174Z,101254.15
2018-12-11T08:46:49.055Z,101265.39
2018-12-11T08:50:16.910Z,101271.13
2018-12-11T08:53:44.781Z,101277.18
2018-12-11T08:57:12.654Z,101285.02
2018-12-11T09:00:40.515Z,101284.36
2018-12-11T09:04:08.390Z,101289.29
2018-12-11T09:07:36.279Z,101294.32
2018-12-11T09:11:04.140Z,101297.41
2018-12-11T09:14:32.014Z,101300.62
2018-12-11T09:17:59.897Z,101302
2018-12-11T09:21:27.761Z,101308.35
2018-12-11T09:24:55.642Z,101309.14
2018-12-11T09:28:23.516Z,101312.12
2018-12-11T09:31:51.373Z,101314.4
2018-12-11T09:35:19.258Z,101309.31
2018-12-11T09:38:47.131Z,101311.09
2018-12-11T09:42:14.985Z,101312.96
2018-12-11T09:45:42.862Z,101321.53
2018-12-11T09:49:11.726Z,101320.07
2018-12-11T09:52:39.600Z,101322.82
2018-12-11T09:56:07.462Z,101319.38
2018-12-11T09:59:35.334Z,101326.32
2018-12-11T10:03:03.212Z,101331.96
2018-12-11T10:06:31.071Z,101330.34
2018-12-11T10:09:58.952Z,101343.21
2018-12-11T10:13:26.829Z,101344.75
2018-12-11T10:16:54.687Z,101347.08
2018-12-11T10:20:22.566Z,101353.29
2018-12-11T10:23:51.432Z,101359.93
2018-12-11T10:27:19.292Z,101362.18
2018-12-11T10:30:47.183Z,101363.96
2018-12-11T10:34:15.057Z,101371.32
2018-12-11T10:37:42.938Z,101372.64
2018-12-11T10:41:10.799Z,101376.02
2018-12-11T10:44:38.676Z,101378.87
2018-12-11T10:48:06.552Z,101375.43
2018-12-11T10:51:34.416Z,101379.96
2018-12-11T10:55:02.285Z,101385.21
2018-12-11T10:58:31.146Z,101387.52
2018-12-11T11:01:59.004Z,101386.67
2018-12-11T11:05:26.891Z,101390.07
2018-12-11T11:08:54.766Z,101392.64
2018-12-11T11:12:22.632Z,101390.64
2018-12-11T11:15:50.513Z,101397.48
2018-12-11T11:19:18.388Z,101398.42
2018-12-11T11:22:47.257Z,101397.43
2018-12-11T11:26:15.119Z,101403.09
2018-12-11T11:29:43.996Z,101402.57
2018-12-11T11:33:11.868Z,101412.42
2018-12-11T11:36:39.728Z,101411.4
2018-12-11T11:40:07.608Z,101411.32
2018-12-11T11:43:35.490Z,101413.17
2018-12-11T11:47:04.346Z,101419.6
2018-12-11T11:50:33.217Z,101425.23
2018-12-11T11:54:01.088Z,101420.99
2018-12-11T11:57:31.034Z,101433.18
2018-12-11T12:00:58.892Z,101433.1
2018-12-11T12:04:26.767Z,101441.75
2018-12-11T12:07:55.640Z,101440.35
2018-12-11T12:11:23.505Z,101444.42
2018-12-11T12:14:51.388Z,101453.34
2018-12-11T12:18:19.293Z,101456.31
2018-12-11T12:21:47.153Z,101470.26
2018-12-11T12:25:15.022Z,101472.28
2018-12-11T12:28:42.894Z,101473.32
2018-12-11T12:32:10.751Z,101476.81
2018-12-11T12:35:38.625Z,101483.42
2018-12-11T12:39:06.506Z,101484.39
2018-12-11T12:42:34.386Z,101491.03
2018-12-11T12:46:02.246Z,101494.51
2018-12-11T12:49:30.117Z,101490.75
2018-12-11T12:52:57.989Z,101495.25
2018-12-11T12:56:25.847Z,101496.94
2018-12-11T12:59:53.716Z,101503.92
2018-12-11T13:03:21.594Z,101506.87
2018-12-11T13:06:49.452Z,101511.09
2018-12-11T13:10:17.323Z,101518.04
2018-12-11T13:13:45.198Z,101516.03
2018-12-11T13:17:13.062Z,101516.06
2018-12-11T13:20:40.941Z,101523.63
2018-12-11T13:24:08.811Z,101526.03
2018-12-11T13:27:36.679Z,101530.37
2018-12-11T13:31:04.551Z,101532.73
2018-12-11T13:34:32.422Z,101531.92
2018-12-11T13:38:00.280Z,101539.15
2018-12-11T13:41:29.258Z,101538.34
2018-12-11T13:44:57.140Z,101544.81
2018-12-11T13:48:25.017Z,101547.75
2018-12-11T13:51:52.886Z,101553.73
2018-12-11T13:55:20.762Z,101558.13
2018-12-11T13:58:48.645Z,101558.35
2018-12-11T14:02:16.506Z,101561.48
2018-12-11T14:05:44.379Z,101558.79
2018-12-11T14:09:12.257Z,101567.89
2018-12-11T14:12:40.117Z,101569.1
2018-12-11T14:16:07.994Z,101577.81
2018-12-11T14:19:35.864Z,101575.46
2018-12-11T14:23:03.724Z,101581.4
2018-12-11T14:26:31.598Z,101583.68
2018-12-11T14:29:59.472Z,101587.6
2018-12-11T14:33:27.355Z,101587.66
2018-12-11T14:36:55.223Z,101593.64
2018-12-11T14:40:23.090Z,101597.67
2018-12-11T14:43:50.969Z,101601.76
2018-12-11T14:47:18.828Z,101606.76
2018-12-11T14:50:46.702Z,101611.9
2018-12-11T14:54:14.575Z,101611.46
2018-12-11T14:57:49.049Z,101613.07
2018-12-11T15:01:16.918Z,101624.02
2018-12-11T15:04:44.798Z,101628.35
2018-12-11T15:08:12.671Z,101632.42
2018-12-11T15:11:40.530Z,101631.31
2018-12-11T15:15:08.417Z,101639.01
2018-12-11T15:18:36.287Z,101642.53
2018-12-11T15:22:04.147Z,101637.41
2018-12-11T15:25:32.027Z,101652.34
2018-12-11T15:29:00.905Z,101650.11
2018-12-11T15:32:28.765Z,101656.37
2018-12-11T15:35:57.638Z,101662.63
2018-12-11T15:39:25.550Z,101670.32
2018-12-11T15:42:54.365Z,101672.73
2018-12-11T15:46:22.241Z,101675.96
2018-12-11T15:49:51.110Z,101680.46
2018-12-11T15:53:18.963Z,101682.71
2018-12-11T15:56:46.837Z,101689.78
2018-12-11T16:00:14.713Z,101692.82
2018-12-11T16:03:42.571Z,101699.56
2018-12-11T16:07:10.459Z,101698.77
2018-12-11T16:10:38.334Z,101706.62
2018-12-11T16:14:06.192Z,101709.37
2018-12-11T16:17:34.072Z,101712.25
2018-12-11T16:21:01.954Z,101716.76
2018-12-11T16:24:29.812Z,101723.5
2018-12-11T16:27:57.696Z,101727.82
2018-12-11T16:31:25.565Z,101725.43
2018-12-11T16:34:53.425Z,101733.01
2018-12-11T16:38:21.302Z,101738.95
2018-12-11T16:41:49.181Z,101741.53
2018-12-11T16:45:17.052Z,101751.79
2018-12-11T16:48:44.915Z,101759.96
2018-12-11T16:52:12.798Z,101762.53
2018-12-11T16:55:40.668Z,101761.59
2018-12-11T16:59:08.538Z,101762.21
2018-12-11T17:02:36.412Z,101769.59
2018-12-11T17:06:04.280Z,101776.53
2018-12-11T17:09:32.143Z,101779.75
2018-12-11T17:13:00.028Z,101779.9
2018-12-11T17:16:27.898Z,101782.04
2018-12-11T17:19:55.754Z,101784.75
2018-12-11T17:23:23.640Z,101795.01
2018-12-11T17:26:51.534Z,101793.25
2018-12-11T17:30:19.414Z,101807.69
2018-12-11T17:33:47.281Z,101811.72
2018-12-11T17:37:15.156Z,101814.64
2018-12-11T17:40:43.037Z,101827.78
2018-12-11T17:44:10.892Z,101824.27
2018-12-11T17:47:38.768Z,101834.36
2018-12-11T17:51:06.643Z,101835.17
2018-12-11T17:54:34.520Z,101839.49
2018-12-11T17:58:02.394Z,101846.27
2018-12-11T18:01:30.274Z,101847.37
2018-12-11T18:04:58.242Z,101846.89
2018-12-11T18:08:26.104Z,101855.89
2018-12-11T18:11:53.980Z,101857.03
2018-12-11T18:15:21.855Z,101863.59
2018-12-11T18:18:49.717Z,101871.78
2018-12-11T18:22:17.590Z,101869.99
2018-12-11T18:25:45.446Z,101869.85
2018-12-11T18:29:13.336Z,101876.25
2018-12-11T18:32:41.206Z,101873.99
2018-12-11T18:36:09.068Z,101877.84
2018-12-11T18:39:36.943Z,101885.67
2018-12-11T18:43:04.838Z,101888.89
2018-12-11T18:46:32.692Z,101898.14
2018-12-11T18:50:01.541Z,101901.99
2018-12-11T18:53:30.421Z,101905.95
2018-12-11T18:56:58.304Z,101912.35
2018-12-11T19:00:26.166Z,101911.21
2018-12-11T19:03:54.045Z,101912.17
2018-12-11T19:07:21.922Z,101913.92
2018-12-11T19:10:49.782Z,101917.42
2018-12-11T19:14:17.674Z,101924.12
2018-12-11T19:17:45.573Z,101927.45
2018-12-11T19:21:13.438Z,101923.76
2018-12-11T19:24:42.371Z,101921.35
2018-12-11T19:28:10.339Z,101930.13
2018-12-11T19:31:38.246Z,101931.07
2018-12-11T19:35:07.109Z,101932.96
2018-12-11T19:38:35.084Z,101937.79
2018-12-11T19:42:03.281Z,101938.54
2018-12-11T19:45:31.548Z,101940.46
2018-12-11T19:48:59.744Z,101946.7
2018-12-11T19:52:28.764Z,101950.37
2018-12-11T19:55:59.949Z,101951.32
2018-12-11T19:59:29.141Z,101950.7
2018-12-11T20:02:58.278Z,101960.79
2018-12-11T20:06:26.396Z,101966.23
2018-12-11T20:09:54.510Z,101969.92
2018-12-11T20:13:23.193Z,101970.59
2018-12-11T20:16:51.300Z,101976.09
2018-12-11T20:20:19.693Z,101982.64
2018-12-11T20:23:48.585Z,101980.96
2018-12-11T20:27:18.679Z,101984.81
2018-12-11T20:30:46.746Z,101981.47
2018-12-11T20:36:21.504Z,101991.45
2018-12-11T20:39:50.609Z,101988.25
2018-12-11T20:43:18.500Z,101995.81
2018-12-11T20:46:46.354Z,102001.74
2018-12-11T20:50:15.336Z,101992.15
2018-12-11T20:53:43.225Z,101999.85
2018-12-11T20:57:12.519Z,102000.84
2018-12-11T21:00:41.565Z,102009.18
2018-12-11T21:04:09.452Z,102011.43
2018-12-11T21:07:38.961Z,102005.19
2018-12-11T21:11:07.176Z,102011.46
2018-12-11T21:14:35.064Z,102021.07
2018-12-11T21:18:02.998Z,102027.5
2018-12-11T21:21:31.895Z,102025.1
2018-12-11T21:24:59.790Z,102028.48
2018-12-11T21:28:28.672Z,102033.92
2018-12-11T21:31:56.637Z,102036.98
2018-12-11T21:35:24.546Z,102044.64
2018-12-11T21:38:52.469Z,102043.53
2018-12-11T21:42:20.341Z,102051.06
2018-12-11T21:45:48.283Z,102042.57
2018-12-11T21:49:16.963Z,102039.06
2018-12-11T21:52:44.842Z,102044.35
2018-12-11T21:56:13.651Z,102041.31
2018-12-11T21:59:41.657Z,102044.84
2018-12-11T22:03:09.553Z,102056.06
2018-12-11T22:06:37.457Z,102061.04
2018-12-11T22:10:05.378Z,102066.14
2018-12-11T22:13:34.821Z,102070.98
2018-12-11T22:17:03.894Z,102068.89
2018-12-11T22:20:31.797Z,102075.77
2018-12-11T22:23:59.658Z,102076.27
2018-12-11T22:27:28.558Z,102077.21
2018-12-11T22:30:56.451Z,102077.21
2018-12-11T22:34:24.363Z,102084.57
2018-12-11T22:37:53.265Z,102077.21
2018-12-11T22:41:21.180Z,102090.02
2018-12-11T22:44:50.047Z,102080.08
2018-12-11T22:48:17.936Z,102093.41
2018-12-11T22:51:45.808Z,102101.1
2018-12-11T22:55:13.811Z,102110.26
2018-12-11T22:58:41.707Z,102109.12
2018-12-11T23:02:09.597Z,102117
2018-12-11T23:05:37.477Z,102114.25
2018-12-11T23:09:05.373Z,102121.14
2018-12-11T23:12:33.243Z,102115.37
2018-12-11T23:16:01.132Z,102108.32
2018-12-11T23:19:29.027Z,102120.04
2018-12-11T23:22:56.907Z,102113.16
2018-12-11T23:26:24.802Z,102120.18
2018-12-11T23:29:52.673Z,102121.99
2018-12-11T23:33:20.576Z,102126.46
2018-12-11T23:36:48.472Z,102121.47
2018-12-11T23:40:16.336Z,102122.4
2018-12-11T23:43:44.269Z,102129.12
2018-12-11T23:47:12.139Z,102138.76
2018-12-11T23:50:40.042Z,102142.59
2018-12-11T23:54:07.911Z,102142.75
2018-12-11T23:57:35.803Z,102139.56
